Time;durP1;ratioP1;P1;durP2;ratioP2;P2;SDS_P1;SDS_P2;PMS_P1;PMS_P2;Temp;Humidity;BMP_temperature;BMP_pressure;BME280_temperature;BME280_humidity;BME280_pressure;Samples;Min_cycle;Max_cycle;Signal;HPM_P1;HPM_P2
2022/03/08 00:00:54;;;;;;;6.33;5.83;;;2.00;1.00;;;;;;6302672;28;20778;-55
2022/03/08 00:03:57;;;;;;;5.47;5.00;;;2.40;1.00;;;;;;6305021;28;20236;-57
2022/03/08 00:07:02;;;;;;;5.93;5.63;;;2.30;1.00;;;;;;6309530;28;20894;-56
2022/03/08 00:10:07;;;;;;;6.10;5.60;;;2.00;1.00;;;;;;6296455;28;20381;-57
2022/03/08 00:13:10;;;;;;;5.97;5.57;;;2.10;1.00;;;;;;6309559;28;20293;-56
2022/03/08 00:16:12;;;;;;;5.53;5.23;;;2.00;1.00;;;;;;6309937;28;20246;-58
2022/03/08 00:19:15;;;;;;;5.97;5.57;;;2.20;1.00;;;;;;6304534;28;20289;-56
2022/03/08 00:22:19;;;;;;;5.07;4.93;;;2.20;1.00;;;;;;6309004;28;20858;-56
2022/03/08 00:25:22;;;;;;;5.50;5.20;;;2.20;1.00;;;;;;6309304;28;20236;-57
2022/03/08 00:28:25;;;;;;;5.77;5.27;;;1.90;1.00;;;;;;6300300;28;20521;-57
2022/03/08 00:31:28;;;;;;;5.67;5.40;;;2.10;1.00;;;;;;6310412;28;20705;-57
2022/03/08 00:34:31;;;;;;;5.43;5.03;;;1.90;1.00;;;;;;6308574;28;20243;-57
2022/03/08 00:37:36;;;;;;;5.17;4.80;;;2.00;1.00;;;;;;6304296;28;20291;-57
2022/03/08 00:40:39;;;;;;;5.60;5.20;;;2.20;1.00;;;;;;6307071;28;20796;-57
2022/03/08 00:43:42;;;;;;;5.40;5.10;;;1.90;1.00;;;;;;6299857;28;20290;-55
2022/03/08 00:46:45;;;;;;;7.03;5.60;;;1.90;1.00;;;;;;6308168;28;20315;-57
2022/03/08 00:49:48;;;;;;;5.30;4.97;;;2.00;1.00;;;;;;6292877;28;20643;-57
2022/03/08 00:52:53;;;;;;;5.43;5.10;;;1.90;1.00;;;;;;6306608;28;20264;-57
2022/03/08 00:55:56;;;;;;;5.80;5.53;;;1.70;1.00;;;;;;6308775;28;20794;-56
2022/03/08 00:58:59;;;;;;;5.40;5.10;;;1.80;1.00;;;;;;6296209;28;20248;-56
2022/03/08 01:02:03;;;;;;;5.50;5.30;;;1.90;1.00;;;;;;6302665;28;20229;-56
2022/03/08 01:05:07;;;;;;;5.70;5.20;;;2.00;1.00;;;;;;6304698;28;20286;-57
2022/03/08 01:08:11;;;;;;;5.40;5.20;;;1.60;1.00;;;;;;6306860;28;20514;-55
2022/03/08 01:11:14;;;;;;;5.97;5.57;;;1.90;1.00;;;;;;6308317;28;20236;-58
2022/03/08 01:14:17;;;;;;;6.33;5.90;;;1.90;1.00;;;;;;6300205;28;20237;-55
2022/03/08 01:17:20;;;;;;;5.57;5.20;;;1.80;1.00;;;;;;6307233;28;20255;-57
2022/03/08 01:20:24;;;;;;;5.60;5.30;;;1.80;1.00;;;;;;6304586;28;20565;-55
2022/03/08 01:23:28;;;;;;;5.60;5.30;;;1.80;1.00;;;;;;6295728;28;20236;-55
2022/03/08 01:26:31;;;;;;;5.40;5.20;;;1.70;1.00;;;;;;6308402;28;20339;-56
2022/03/08 01:29:34;;;;;;;5.53;5.23;;;1.90;1.00;;;;;;6301161;28;20317;-57
2022/03/08 01:32:37;;;;;;;5.90;5.50;;;1.80;1.00;;;;;;6305345;28;20487;-57
2022/03/08 01:35:39;;;;;;;6.03;5.73;;;1.60;1.00;;;;;;6307403;28;20385;-55
2022/03/08 01:38:44;;;;;;;5.30;4.93;;;1.60;1.00;;;;;;6294496;28;20247;-55
2022/03/08 01:41:46;;;;;;;5.83;5.47;;;1.60;1.00;;;;;;6308377;28;20315;-55
2022/03/08 01:44:50;;;;;;;6.00;5.60;;;1.60;1.00;;;;;;6308215;28;20324;-56
2022/03/08 01:47:54;;;;;;;6.03;5.50;;;1.50;1.00;;;;;;6302899;28;20294;-55
2022/03/08 01:50:57;;;;;;;6.23;5.63;;;1.40;1.00;;;;;;6298047;28;20241;-58
2022/03/08 01:54:01;;;;;;;6.27;5.67;;;1.60;1.00;;;;;;6303175;28;20331;-57
2022/03/08 01:57:04;;;;;;;6.03;5.70;;;1.60;1.00;;;;;;6302087;28;20305;-55
2022/03/08 02:00:11;;;;;;;6.20;5.70;;;1.40;1.00;;;;;;6302800;28;20263;-56
2022/03/08 02:03:14;;;;;;;5.67;5.40;;;1.70;1.00;;;;;;6304241;28;20260;-55
2022/03/08 02:06:18;;;;;;;6.13;5.73;;;1.60;1.00;;;;;;6301394;28;20225;-56
2022/03/08 02:09:22;;;;;;;6.10;5.77;;;1.40;1.00;;;;;;6304871;28;20367;-57
2022/03/08 02:12:25;;;;;;;6.37;5.97;;;1.50;1.00;;;;;;6307978;28;20899;-57
2022/03/08 02:15:29;;;;;;;6.13;5.83;;;1.40;1.00;;;;;;6312841;28;20237;-56
2022/03/08 02:18:32;;;;;;;6.60;6.10;;;1.60;1.00;;;;;;6305606;28;20242;-54
2022/03/08 02:21:36;;;;;;;6.60;6.20;;;1.20;1.00;;;;;;6310885;28;20342;-57
2022/03/08 02:24:39;;;;;;;6.53;6.03;;;1.50;1.00;;;;;;6311739;28;20241;-57
2022/03/08 02:27:43;;;;;;;6.10;5.70;;;1.50;1.00;;;;;;6298821;28;20259;-57
2022/03/08 02:30:46;;;;;;;6.50;6.10;;;1.60;1.00;;;;;;6302699;28;20721;-55
2022/03/08 02:33:49;;;;;;;6.53;6.03;;;1.30;1.00;;;;;;6312318;28;20255;-56
2022/03/08 02:37:01;;;;;;;7.13;6.50;;;1.40;1.00;;;;;;6301658;28;20232;-55
2022/03/08 02:40:04;;;;;;;6.30;5.90;;;1.50;1.00;;;;;;6305723;28;20278;-57
2022/03/08 02:43:09;;;;;;;7.10;6.60;;;1.20;1.00;;;;;;6311867;28;20236;-57
2022/03/08 02:46:12;;;;;;;6.70;6.30;;;1.40;1.00;;;;;;6309991;28;20258;-55
2022/03/08 02:49:15;;;;;;;6.80;6.40;;;1.50;1.00;;;;;;6295735;28;20243;-56
2022/03/08 02:52:19;;;;;;;7.30;6.67;;;1.20;1.00;;;;;;6300675;28;20825;-54
2022/03/08 02:55:23;;;;;;;7.10;6.60;;;1.20;1.00;;;;;;6296755;28;20240;-55
2022/03/08 02:58:26;;;;;;;6.53;6.07;;;1.40;1.00;;;;;;6287098;28;20232;-57
2022/03/08 03:01:29;;;;;;;7.40;6.70;;;1.00;1.00;;;;;;6308731;28;20564;-54
2022/03/08 03:04:32;;;;;;;7.13;6.53;;;1.10;1.00;;;;;;6309810;28;20233;-57
2022/03/08 03:07:36;;;;;;;6.63;6.13;;;1.10;1.00;;;;;;6299073;28;20371;-55
2022/03/08 03:10:39;;;;;;;6.80;6.33;;;1.20;1.00;;;;;;6310358;28;20236;-57
2022/03/08 03:13:42;;;;;;;7.90;7.30;;;1.30;1.00;;;;;;6301308;28;20317;-57
2022/03/08 03:16:45;;;;;;;7.53;7.03;;;1.00;1.00;;;;;;6309996;28;20311;-56
2022/03/08 03:19:47;;;;;;;8.00;7.20;;;1.00;1.00;;;;;;6304006;28;20328;-57
2022/03/08 03:22:51;;;;;;;7.40;6.80;;;1.40;1.00;;;;;;6302712;28;20312;-56
2022/03/08 03:25:54;;;;;;;7.20;6.60;;;0.90;1.00;;;;;;6309590;28;20264;-56
2022/03/08 03:28:58;;;;;;;7.43;6.83;;;1.30;1.00;;;;;;6297773;28;20225;-56
2022/03/08 03:32:01;;;;;;;7.40;6.80;;;1.20;1.00;;;;;;6300985;28;20270;-57
2022/03/08 03:35:05;;;;;;;7.87;7.30;;;1.10;1.00;;;;;;6308715;28;20323;-55
2022/03/08 03:38:09;;;;;;;7.87;7.37;;;1.00;1.00;;;;;;6300206;28;20247;-55
2022/03/08 03:41:11;;;;;;;8.53;7.73;;;1.00;1.00;;;;;;6308442;28;20262;-56
2022/03/08 03:44:14;;;;;;;7.37;6.77;;;0.90;1.00;;;;;;6303101;28;20241;-55
2022/03/08 03:47:17;;;;;;;7.77;7.17;;;1.20;1.00;;;;;;6307052;28;20315;-55
2022/03/08 03:50:20;;;;;;;7.67;7.07;;;0.90;1.00;;;;;;6292477;28;20530;-57
2022/03/08 03:53:24;;;;;;;8.23;7.40;;;1.20;1.00;;;;;;6300629;28;20966;-57
2022/03/08 03:56:27;;;;;;;7.93;7.33;;;1.00;1.00;;;;;;6310286;28;20310;-56
2022/03/08 03:59:30;;;;;;;7.43;6.83;;;0.90;1.00;;;;;;6303374;28;20356;-57
2022/03/08 04:02:33;;;;;;;7.57;7.00;;;1.10;1.00;;;;;;6307212;28;20326;-57
2022/03/08 04:05:36;;;;;;;7.63;7.00;;;0.80;1.00;;;;;;6307775;28;20587;-56
2022/03/08 04:08:40;;;;;;;7.80;7.30;;;0.70;1.00;;;;;;6296863;28;20793;-57
2022/03/08 04:11:45;;;;;;;7.37;6.90;;;0.70;1.00;;;;;;6302060;28;20236;-55
2022/03/08 04:14:48;;;;;;;8.10;7.30;;;1.10;1.00;;;;;;6308128;28;20417;-56
2022/03/08 04:17:51;;;;;;;8.27;7.47;;;1.00;1.00;;;;;;6302307;28;20233;-58
2022/03/08 04:20:54;;;;;;;7.53;6.93;;;0.80;1.00;;;;;;6304385;28;20240;-57
2022/03/08 04:23:59;;;;;;;7.43;7.00;;;1.10;1.00;;;;;;6308090;28;20256;-57
2022/03/08 04:27:01;;;;;;;6.83;6.33;;;0.70;1.00;;;;;;6307648;28;20252;-55
2022/03/08 04:30:06;;;;;;;7.80;7.20;;;0.60;1.00;;;;;;6304177;28;20366;-56
2022/03/08 04:33:08;;;;;;;7.40;6.90;;;0.70;1.00;;;;;;6289653;28;20676;-56
2022/03/08 04:36:11;;;;;;;7.03;6.63;;;0.80;1.00;;;;;;6295413;28;20224;-56
2022/03/08 04:39:15;;;;;;;7.63;7.00;;;0.90;1.00;;;;;;6297485;28;20308;-56
2022/03/08 04:42:18;;;;;;;7.40;6.80;;;0.80;1.00;;;;;;6299559;28;20725;-58
2022/03/08 04:45:21;;;;;;;7.97;7.27;;;0.90;1.00;;;;;;6302833;28;20388;-57
2022/03/08 04:48:24;;;;;;;7.23;6.63;;;0.80;1.00;;;;;;6297011;28;20239;-55
2022/03/08 04:51:27;;;;;;;7.53;7.00;;;0.90;1.00;;;;;;6297310;28;20233;-55
2022/03/08 04:54:31;;;;;;;7.83;7.23;;;0.60;1.00;;;;;;6302571;28;20240;-55
2022/03/08 04:57:34;;;;;;;7.80;7.20;;;0.50;1.00;;;;;;6295336;28;20226;-55
2022/03/08 05:00:37;;;;;;;7.53;7.10;;;0.50;1.00;;;;;;6296948;28;20256;-55
2022/03/08 05:03:40;;;;;;;7.83;7.23;;;0.60;1.00;;;;;;6300574;28;20623;-56
2022/03/08 05:06:43;;;;;;;7.63;7.13;;;0.60;1.00;;;;;;6287468;28;20309;-57
2022/03/08 05:09:47;;;;;;;7.73;7.03;;;0.50;1.00;;;;;;6294800;28;20650;-56
2022/03/08 05:12:50;;;;;;;7.77;7.17;;;0.60;1.00;;;;;;6307944;28;20327;-57
2022/03/08 05:15:53;;;;;;;7.70;7.10;;;0.50;1.00;;;;;;6300984;28;20316;-56
2022/03/08 05:18:55;;;;;;;8.57;7.20;;;0.70;1.00;;;;;;6304576;28;20246;-55
2022/03/08 05:21:59;;;;;;;7.57;6.90;;;0.70;1.00;;;;;;6302114;28;20371;-55
2022/03/08 05:25:04;;;;;;;7.17;6.67;;;0.50;1.00;;;;;;6298797;28;20311;-57
2022/03/08 05:28:07;;;;;;;7.63;7.00;;;0.50;1.00;;;;;;6300213;28;20232;-57
2022/03/08 05:31:09;;;;;;;7.60;7.13;;;0.70;1.00;;;;;;6300341;28;20587;-55
2022/03/08 05:34:14;;;;;;;7.70;7.00;;;0.60;1.00;;;;;;6299468;28;20651;-57
2022/03/08 05:37:17;;;;;;;8.10;7.30;;;0.50;1.00;;;;;;6302648;28;20311;-57
2022/03/08 05:40:21;;;;;;;8.03;7.43;;;0.60;1.00;;;;;;6302695;28;20281;-55
2022/03/08 05:43:24;;;;;;;6.77;6.37;;;0.60;1.00;;;;;;6305885;28;20331;-55
2022/03/08 05:46:27;;;;;;;7.70;7.20;;;0.50;1.00;;;;;;6297053;28;20287;-57
2022/03/08 05:49:29;;;;;;;8.43;7.63;;;0.60;1.00;;;;;;6301929;28;20760;-57
2022/03/08 05:52:33;;;;;;;7.57;6.93;;;0.70;1.00;;;;;;6302071;28;20236;-57
2022/03/08 05:55:37;;;;;;;7.60;7.10;;;0.70;1.00;;;;;;6311165;28;20320;-56
2022/03/08 05:58:40;;;;;;;9.57;6.90;;;0.80;1.00;;;;;;6305059;28;20321;-58
2022/03/08 06:01:43;;;;;;;7.93;7.33;;;0.50;1.00;;;;;;6309625;28;20386;-56
2022/03/08 06:04:46;;;;;;;7.87;6.93;;;0.80;1.00;;;;;;6307417;28;20470;-56
2022/03/08 06:07:49;;;;;;;8.07;7.33;;;0.80;1.00;;;;;;6298680;28;20237;-56
2022/03/08 06:10:53;;;;;;;7.93;7.30;;;0.80;1.00;;;;;;6307178;28;20237;-55
2022/03/08 06:13:56;;;;;;;7.80;7.27;;;0.90;1.00;;;;;;6305840;28;20737;-57
2022/03/08 06:16:58;;;;;;;8.00;7.37;;;1.00;1.00;;;;;;6305077;28;20301;-55
2022/03/08 06:20:01;;;;;;;7.43;7.03;;;1.10;1.00;;;;;;6295317;28;20237;-62
2022/03/08 06:23:04;;;;;;;7.63;6.93;;;1.10;1.00;;;;;;6309247;28;20317;-57
2022/03/08 06:26:09;;;;;;;7.93;7.33;;;1.20;1.00;;;;;;6312067;28;20428;-57
2022/03/08 06:29:12;;;;;;;8.47;7.77;;;1.10;1.00;;;;;;6308238;28;20446;-56
2022/03/08 06:32:15;;;;;;;9.47;7.80;;;1.30;1.00;;;;;;6305572;28;20240;-57
2022/03/08 06:35:19;;;;;;;7.53;7.03;;;1.40;1.00;;;;;;6302136;28;20734;-57
2022/03/08 06:38:22;;;;;;;9.00;8.30;;;1.40;1.00;;;;;;6309015;28;20325;-57
2022/03/08 06:41:27;;;;;;;8.10;7.40;;;1.30;1.00;;;;;;6309635;28;21002;-56
2022/03/08 06:44:31;;;;;;;9.03;8.30;;;1.50;1.00;;;;;;6307990;28;20328;-57
2022/03/08 06:47:34;;;;;;;8.37;7.77;;;2.10;1.00;;;;;;6300046;28;20261;-56
2022/03/08 06:50:37;;;;;;;9.13;8.23;;;2.90;1.00;;;;;;6298319;28;20996;-57
2022/03/08 06:53:40;;;;;;;9.60;8.57;;;3.10;1.00;;;;;;6306520;28;20905;-57
2022/03/08 06:56:44;;;;;;;10.03;8.93;;;3.30;1.00;;;;;;6305812;28;20281;-57
2022/03/08 06:59:47;;;;;;;12.53;9.27;;;3.30;1.00;;;;;;6299836;28;20734;-55
2022/03/08 07:02:49;;;;;;;10.50;9.43;;;3.30;1.00;;;;;;6307996;28;20588;-56
2022/03/08 07:05:52;;;;;;;17.17;11.73;;;3.90;1.00;;;;;;6299403;28;20317;-57
2022/03/08 07:08:55;;;;;;;14.47;10.93;;;4.20;1.00;;;;;;6303803;28;20229;-57
2022/03/08 07:11:59;;;;;;;11.17;10.00;;;4.30;1.00;;;;;;6319138;28;20264;-56
2022/03/08 07:15:09;;;;;;;10.80;9.07;;;4.00;1.00;;;;;;6310454;28;20893;-56
2022/03/08 07:18:12;;;;;;;11.00;9.77;;;3.80;1.00;;;;;;6304524;28;20345;-56
2022/03/08 07:21:14;;;;;;;11.13;9.83;;;4.00;1.00;;;;;;6301474;28;20228;-57
2022/03/08 07:24:17;;;;;;;10.97;9.97;;;4.20;1.00;;;;;;6310123;28;21630;-57
2022/03/08 07:27:21;;;;;;;11.67;10.10;;;4.50;1.00;;;;;;6305698;28;20276;-56
2022/03/08 07:30:24;;;;;;;10.93;9.70;;;4.40;1.00;;;;;;6303746;28;20256;-55
2022/03/08 07:33:27;;;;;;;13.20;10.63;;;4.30;1.00;;;;;;6302416;28;20243;-57
2022/03/08 07:36:31;;;;;;;12.77;11.47;;;4.10;1.00;;;;;;6303873;28;20543;-57
2022/03/08 07:39:33;;;;;;;12.57;10.70;;;4.00;1.00;;;;;;6297174;28;20662;-57
2022/03/08 07:42:37;;;;;;;11.80;10.60;;;4.20;1.00;;;;;;6302388;28;20314;-57
2022/03/08 07:45:40;;;;;;;12.67;11.37;;;4.10;1.00;;;;;;6304317;28;20244;-56
2022/03/08 07:48:43;;;;;;;12.63;11.33;;;4.00;1.00;;;;;;6294704;28;20232;-55
2022/03/08 07:52:05;;;;;;;12.37;11.20;;;4.10;1.00;;;;;;6302555;28;20237;-56
2022/03/08 07:55:09;;;;;;;13.03;11.50;;;4.00;1.00;;;;;;6302066;28;20307;-57
2022/03/08 07:58:14;;;;;;;16.03;12.87;;;4.20;1.00;;;;;;6299710;28;20232;-57
2022/03/08 08:01:17;;;;;;;13.93;12.47;;;4.30;1.00;;;;;;6305345;28;20434;-55
2022/03/08 08:04:20;;;;;;;17.60;12.70;;;4.40;1.00;;;;;;6307360;28;20236;-56
2022/03/08 08:07:22;;;;;;;15.13;12.80;;;4.50;1.00;;;;;;6302801;28;20733;-56
2022/03/08 08:10:25;;;;;;;13.93;12.37;;;4.40;1.00;;;;;;6298971;28;20811;-56
2022/03/08 08:13:29;;;;;;;12.17;10.97;;;4.40;1.00;;;;;;6295744;28;20248;-57
2022/03/08 08:16:32;;;;;;;11.73;9.93;;;4.60;1.00;;;;;;6307022;28;20228;-57
2022/03/08 08:19:35;;;;;;;11.03;9.97;;;4.30;1.00;;;;;;6288709;28;20406;-57
2022/03/08 08:22:38;;;;;;;10.60;9.57;;;4.30;1.00;;;;;;6295335;28;20760;-56
2022/03/08 08:25:41;;;;;;;10.37;9.30;;;4.50;1.00;;;;;;6308735;28;20240;-58
2022/03/08 08:28:46;;;;;;;10.87;9.77;;;4.50;1.00;;;;;;6304240;28;20259;-58
2022/03/08 08:31:49;;;;;;;9.87;8.90;;;4.60;1.00;;;;;;6303325;28;20333;-57
2022/03/08 08:34:52;;;;;;;9.23;8.43;;;4.70;1.00;;;;;;6301197;28;20248;-57
2022/03/08 08:37:55;;;;;;;11.73;8.93;;;5.20;1.00;;;;;;6299193;28;20269;-57
2022/03/08 08:40:58;;;;;;;8.60;7.80;;;5.00;1.00;;;;;;6299506;28;20387;-57
2022/03/08 08:44:03;;;;;;;8.87;8.13;;;5.10;1.00;;;;;;6303763;28;20323;-57
2022/03/08 08:47:06;;;;;;;8.97;7.80;;;5.40;1.00;;;;;;6302504;28;20244;-57
2022/03/08 08:50:10;;;;;;;9.40;8.40;;;5.60;1.00;;;;;;6291112;28;20239;-58
2022/03/08 08:53:13;;;;;;;9.03;8.13;;;5.80;1.00;;;;;;6307927;28;20286;-57
2022/03/08 08:56:15;;;;;;;10.27;9.20;;;5.80;1.00;;;;;;6307472;28;20381;-57
2022/03/08 08:59:20;;;;;;;9.67;8.70;;;5.80;1.00;;;;;;6301458;28;20311;-56
2022/03/08 09:02:22;;;;;;;10.70;9.77;;;6.00;1.00;;;;;;6302196;28;20229;-57
2022/03/08 09:05:25;;;;;;;9.90;8.90;;;6.10;1.00;;;;;;6302931;28;20615;-59
2022/03/08 09:08:28;;;;;;;10.20;9.30;;;6.30;1.00;;;;;;6288376;28;20229;-57
2022/03/08 09:11:34;;;;;;;8.83;8.10;;;6.40;1.00;;;;;;6295097;28;20249;-58
2022/03/08 09:14:38;;;;;;;9.23;7.83;;;6.70;1.00;;;;;;6305375;28;20386;-59
2022/03/08 09:17:41;;;;;;;9.57;8.60;;;6.90;1.00;;;;;;6299355;28;20399;-57
2022/03/08 09:20:44;;;;;;;10.10;8.53;;;6.80;1.00;;;;;;6304687;28;20236;-56
2022/03/08 09:23:47;;;;;;;8.97;8.07;;;6.90;1.00;;;;;;6291354;28;20474;-58
2022/03/08 09:26:50;;;;;;;16.17;10.00;;;6.90;1.00;;;;;;6307917;28;20273;-58
2022/03/08 09:29:54;;;;;;;9.07;8.10;;;7.10;1.00;;;;;;6301685;28;20520;-57
2022/03/08 09:32:58;;;;;;;10.47;7.90;;;7.40;1.00;;;;;;6295142;28;20313;-58
2022/03/08 09:36:00;;;;;;;9.37;7.83;;;7.30;1.00;;;;;;6301000;28;20293;-57
2022/03/08 09:39:04;;;;;;;9.43;8.33;;;7.50;1.00;;;;;;6296827;28;20228;-58
2022/03/08 09:42:08;;;;;;;9.87;8.90;;;7.60;1.00;;;;;;6307169;28;20313;-60
2022/03/08 09:45:14;;;;;;;8.43;7.67;;;7.70;1.00;;;;;;6305969;28;20275;-56
2022/03/08 09:48:18;;;;;;;9.90;8.37;;;7.90;1.00;;;;;;6301685;28;20340;-57
2022/03/08 09:51:22;;;;;;;9.10;8.20;;;7.90;1.00;;;;;;6291561;28;20721;-58
2022/03/08 09:54:25;;;;;;;9.43;8.00;;;8.00;1.00;;;;;;6305164;28;20246;-59
2022/03/08 09:57:28;;;;;;;8.67;7.70;;;8.10;1.00;;;;;;6304269;28;20559;-59
2022/03/08 10:00:33;;;;;;;8.50;7.90;;;8.20;1.00;;;;;;6298372;28;20245;-58
2022/03/08 10:03:39;;;;;;;8.43;7.73;;;8.30;1.00;;;;;;6306980;28;20256;-57
2022/03/08 10:06:44;;;;;;;12.57;8.97;;;8.40;1.00;;;;;;6307240;28;20232;-59
2022/03/08 10:09:56;;;;;;;10.80;7.87;;;8.40;1.00;;;;;;6299571;28;20237;-57
2022/03/08 10:13:00;;;;;;;7.90;7.27;;;8.30;1.00;;;;;;6305518;28;20454;-57
2022/03/08 10:16:10;;;;;;;8.60;7.83;;;8.40;1.00;;;;;;6296460;28;20237;-58
2022/03/08 10:19:13;;;;;;;8.00;7.13;;;8.50;1.00;;;;;;6304136;28;20308;-58
2022/03/08 10:22:25;;;;;;;8.50;7.83;;;8.50;1.00;;;;;;6305730;28;20684;-59
2022/03/08 10:25:30;;;;;;;7.63;7.03;;;8.70;1.00;;;;;;6294534;28;20608;-58
2022/03/08 10:28:44;;;;;;;8.37;7.63;;;8.80;1.00;;;;;;6299562;28;20398;-58
2022/03/08 10:31:49;;;;;;;8.10;7.30;;;8.90;1.00;;;;;;6299783;28;20667;-58
2022/03/08 10:34:54;;;;;;;8.00;7.50;;;8.90;1.00;;;;;;6303567;28;20241;-57
2022/03/08 10:38:03;;;;;;;7.10;6.70;;;9.00;1.00;;;;;;6304629;28;20791;-57
2022/03/08 10:41:17;;;;;;;7.03;6.53;;;9.20;1.00;;;;;;6308944;28;20413;-58
2022/03/08 10:44:36;;;;;;;7.50;6.83;;;9.30;1.00;;;;;;6311671;28;20287;-57
2022/03/08 10:47:41;;;;;;;7.37;6.70;;;9.30;1.00;;;;;;6301283;28;20229;-59
2022/03/08 10:50:45;;;;;;;6.33;5.83;;;9.50;1.00;;;;;;6303455;28;21018;-58
2022/03/08 10:53:48;;;;;;;6.63;6.03;;;9.50;1.00;;;;;;6311139;28;20366;-59
2022/03/08 10:56:51;;;;;;;5.70;5.40;;;9.50;1.00;;;;;;6295798;28;20367;-59
2022/03/08 10:59:55;;;;;;;6.37;5.90;;;9.90;1.00;;;;;;6304293;28;20240;-58
2022/03/08 11:03:01;;;;;;;6.40;6.00;;;9.90;1.00;;;;;;6311054;28;20858;-58
2022/03/08 11:06:05;;;;;;;6.03;5.60;;;10.00;1.00;;;;;;6304739;28;20229;-58
2022/03/08 11:09:09;;;;;;;5.93;5.53;;;10.20;1.00;;;;;;6305148;28;20282;-57
2022/03/08 11:12:12;;;;;;;6.03;5.53;;;10.40;1.00;;;;;;6300854;28;20225;-59
2022/03/08 11:15:17;;;;;;;5.90;5.60;;;10.50;1.00;;;;;;6305436;28;20327;-59
2022/03/08 11:18:22;;;;;;;6.13;5.70;;;10.40;1.00;;;;;;6304475;28;20286;-59
2022/03/08 11:21:27;;;;;;;6.20;5.83;;;10.40;1.00;;;;;;6298523;28;20240;-59
2022/03/08 11:24:31;;;;;;;4.97;4.67;;;10.50;1.00;;;;;;6304040;28;20291;-58
2022/03/08 11:27:35;;;;;;;6.03;5.27;;;10.40;1.00;;;;;;6303874;28;20538;-59
2022/03/08 11:30:42;;;;;;;5.30;5.00;;;10.60;1.00;;;;;;6304746;28;20241;-59
2022/03/08 11:33:59;;;;;;;5.20;5.00;;;10.70;1.00;;;;;;6297453;28;20301;-58
2022/03/08 11:37:08;;;;;;;5.40;5.10;;;10.80;1.00;;;;;;6298895;28;20331;-58
2022/03/08 11:40:12;;;;;;;5.67;5.27;;;10.90;1.00;;;;;;6300717;28;20322;-58
2022/03/08 11:43:15;;;;;;;5.07;4.87;;;10.90;1.00;;;;;;6301493;28;20279;-59
2022/03/08 11:46:19;;;;;;;4.63;4.50;;;10.90;1.00;;;;;;6308640;28;20781;-59
2022/03/08 11:49:39;;;;;;;5.17;4.87;;;11.00;1.00;;;;;;6297458;28;20236;-59
2022/03/08 11:52:41;;;;;;;4.97;4.60;;;11.20;1.00;;;;;;6307997;28;20321;-59
2022/03/08 11:55:55;;;;;;;6.53;4.60;;;11.30;1.00;;;;;;6305241;28;20733;-57
2022/03/08 11:59:09;;;;;;;4.77;4.47;;;11.40;1.00;;;;;;6301306;28;20244;-58
2022/03/08 12:02:17;;;;;;;4.93;4.67;;;11.40;1.00;;;;;;6308917;28;20244;-58
2022/03/08 12:05:42;;;;;;;5.70;5.07;;;11.60;1.00;;;;;;6304558;28;20229;-58
2022/03/08 12:08:46;;;;;;;4.60;4.27;;;11.50;1.00;;;;;;6299625;28;20367;-58
2022/03/08 12:11:53;;;;;;;4.57;4.37;;;11.60;1.00;;;;;;6305250;28;20237;-59
2022/03/08 12:15:04;;;;;;;5.00;4.70;;;11.40;1.00;;;;;;6306720;28;20343;-59
2022/03/08 12:18:18;;;;;;;5.50;5.20;;;11.70;1.00;;;;;;6301980;28;20244;-59
2022/03/08 12:21:42;;;;;;;5.37;5.13;;;11.80;1.00;;;;;;6304834;28;20295;-59
2022/03/08 12:24:48;;;;;;;7.27;6.37;;;11.40;1.00;;;;;;6301372;28;20263;-58
2022/03/08 12:27:53;;;;;;;5.93;5.50;;;11.30;1.00;;;;;;6304462;28;20272;-59
2022/03/08 12:31:06;;;;;;;5.60;5.20;;;11.20;1.00;;;;;;6308278;28;20574;-58
2022/03/08 12:34:38;;;;;;;7.23;5.33;;;11.40;1.00;;;;;;6301931;28;20611;-58
2022/03/08 12:38:03;;;;;;;5.40;5.10;;;11.60;1.00;;;;;;6295954;28;20268;-59
2022/03/08 12:41:06;;;;;;;5.13;4.73;;;11.70;1.00;;;;;;6307164;28;20235;-59
2022/03/08 12:44:08;;;;;;;4.80;4.37;;;11.80;1.00;;;;;;6301193;28;20320;-58
2022/03/08 12:47:11;;;;;;;3.90;3.60;;;11.80;1.00;;;;;;6293676;28;20228;-57
2022/03/08 12:50:16;;;;;;;4.10;3.93;;;11.90;1.00;;;;;;6297355;28;20721;-57
2022/03/08 12:53:24;;;;;;;4.50;4.30;;;12.10;1.00;;;;;;6307193;28;20233;-58
2022/03/08 12:56:28;;;;;;;3.93;3.70;;;12.10;1.00;;;;;;6302927;28;20478;-59
2022/03/08 12:59:31;;;;;;;4.13;4.00;;;12.00;1.00;;;;;;6298445;28;20645;-58
2022/03/08 13:02:36;;;;;;;4.40;4.10;;;11.90;1.00;;;;;;6309253;28;20732;-58
2022/03/08 13:05:41;;;;;;;4.53;4.23;;;12.00;1.00;;;;;;6307560;28;20231;-58
2022/03/08 13:08:47;;;;;;;5.13;4.67;;;12.00;1.00;;;;;;6303262;28;20319;-59
2022/03/08 13:11:50;;;;;;;4.27;4.07;;;12.00;1.00;;;;;;6309894;28;20232;-62
2022/03/08 13:15:15;;;;;;;4.20;3.93;;;12.00;1.00;;;;;;6302686;28;20371;-58
2022/03/08 13:18:20;;;;;;;4.10;3.90;;;12.10;1.00;;;;;;6301698;28;20236;-57
2022/03/08 13:21:23;;;;;;;4.30;3.97;;;12.30;1.00;;;;;;6303841;28;20232;-59
2022/03/08 13:24:28;;;;;;;4.07;3.83;;;12.20;1.00;;;;;;6301272;28;20795;-59
2022/03/08 13:27:49;;;;;;;3.87;3.77;;;12.30;1.00;;;;;;6295529;28;20252;-58
2022/03/08 13:30:54;;;;;;;4.40;4.20;;;12.40;1.00;;;;;;6302274;28;20253;-59
2022/03/08 13:33:59;;;;;;;4.60;4.20;;;12.30;1.00;;;;;;6300082;28;20263;-59
2022/03/08 13:37:02;;;;;;;5.37;4.97;;;12.20;1.00;;;;;;6302173;28;20237;-58
2022/03/08 13:40:07;;;;;;;5.10;4.70;;;11.80;1.00;;;;;;6301336;28;20379;-60
2022/03/08 13:43:11;;;;;;;5.00;4.80;;;11.70;1.00;;;;;;6295931;28;20410;-59
2022/03/08 13:46:37;;;;;;;4.70;4.40;;;11.80;1.00;;;;;;6301230;28;20233;-59
2022/03/08 13:49:40;;;;;;;4.33;4.10;;;12.00;1.00;;;;;;6299262;28;20560;-59
2022/03/08 13:52:50;;;;;;;3.80;3.70;;;12.10;1.00;;;;;;6308404;28;20688;-59
2022/03/08 13:55:56;;;;;;;4.13;3.90;;;12.20;1.00;;;;;;6302263;28;20913;-64
2022/03/08 13:58:59;;;;;;;4.13;4.00;;;12.30;1.00;;;;;;6297423;28;20324;-59
2022/03/08 14:02:03;;;;;;;4.00;3.80;;;12.20;1.00;;;;;;6304658;28;20236;-58
2022/03/08 14:05:09;;;;;;;3.83;3.73;;;12.20;1.00;;;;;;6297162;28;20767;-58
2022/03/08 14:08:12;;;;;;;3.87;3.67;;;12.20;1.00;;;;;;6308594;28;20354;-58
2022/03/08 14:11:18;;;;;;;3.30;3.20;;;12.10;1.00;;;;;;6306041;28;20501;-58
2022/03/08 14:14:24;;;;;;;3.87;3.77;;;12.20;1.00;;;;;;6307471;28;20355;-62
2022/03/08 14:17:31;;;;;;;3.63;3.53;;;12.20;1.00;;;;;;6303254;28;20245;-58
2022/03/08 14:20:38;;;;;;;4.07;3.83;;;12.30;1.00;;;;;;6307456;28;20314;-59
2022/03/08 14:23:42;;;;;;;3.13;3.03;;;12.40;1.00;;;;;;6302962;28;20254;-59
2022/03/08 14:27:01;;;;;;;4.50;3.27;;;12.30;1.00;;;;;;6306859;28;20243;-59
2022/03/08 14:30:06;;;;;;;3.37;3.20;;;12.40;1.00;;;;;;6302593;28;20720;-59
2022/03/08 14:33:10;;;;;;;3.87;3.57;;;12.30;1.00;;;;;;6304145;28;20441;-58
2022/03/08 14:36:28;;;;;;;4.17;3.87;;;12.40;1.00;;;;;;6298326;28;20229;-58
2022/03/08 14:39:33;;;;;;;3.60;3.50;;;12.30;1.00;;;;;;6303669;28;20247;-57
2022/03/08 14:42:38;;;;;;;3.90;3.70;;;12.20;1.00;;;;;;6309732;28;20390;-57
2022/03/08 14:45:41;;;;;;;3.90;3.70;;;12.10;1.00;;;;;;6310696;28;20260;-57
2022/03/08 14:49:04;;;;;;;3.77;3.50;;;12.10;1.00;;;;;;6302710;28;20596;-58
2022/03/08 14:52:16;;;;;;;3.80;3.60;;;12.00;1.00;;;;;;6307728;28;20301;-59
2022/03/08 14:55:19;;;;;;;3.00;2.90;;;11.90;1.00;;;;;;6310279;28;20282;-61
2022/03/08 14:58:27;;;;;;;3.63;3.40;;;11.90;1.00;;;;;;6304137;28;20727;-57
2022/03/08 15:01:30;;;;;;;5.57;3.67;;;11.80;1.00;;;;;;6301809;28;20744;-58
2022/03/08 15:04:33;;;;;;;3.60;3.50;;;11.60;1.00;;;;;;6303842;28;20233;-57
2022/03/08 15:07:36;;;;;;;3.50;3.30;;;11.60;1.00;;;;;;6304575;28;20236;-57
2022/03/08 15:10:39;;;;;;;3.77;3.57;;;11.60;1.00;;;;;;6304056;28;20263;-58
2022/03/08 15:13:43;;;;;;;3.80;3.50;;;11.50;1.00;;;;;;6309650;28;20245;-58
2022/03/08 15:16:46;;;;;;;3.77;3.57;;;11.40;1.00;;;;;;6303179;28;20245;-59
2022/03/08 15:19:51;;;;;;;3.93;3.73;;;11.20;1.00;;;;;;6302894;28;20455;-57
2022/03/08 15:22:54;;;;;;;3.73;3.53;;;11.00;1.00;;;;;;6309129;28;20315;-57
2022/03/08 15:25:57;;;;;;;3.70;3.60;;;10.90;1.00;;;;;;6305122;28;20243;-58
2022/03/08 15:29:02;;;;;;;3.83;3.63;;;10.80;1.00;;;;;;6305113;28;20241;-58
2022/03/08 15:32:05;;;;;;;3.43;3.23;;;10.70;1.00;;;;;;6296198;28;20403;-57
2022/03/08 15:35:09;;;;;;;4.27;4.07;;;10.60;1.00;;;;;;6299799;28;20871;-58
2022/03/08 15:38:11;;;;;;;4.10;3.83;;;10.40;1.00;;;;;;6301131;28;20324;-57
2022/03/08 15:41:15;;;;;;;3.50;3.40;;;10.40;1.00;;;;;;6310662;28;20324;-57
2022/03/08 15:44:19;;;;;;;3.80;3.70;;;10.20;1.00;;;;;;6308878;28;20243;-59
2022/03/08 15:47:22;;;;;;;4.13;3.93;;;10.10;1.00;;;;;;6302215;28;20228;-57
2022/03/08 15:50:25;;;;;;;3.67;3.47;;;10.10;1.00;;;;;;6305132;28;20308;-57
2022/03/08 15:53:30;;;;;;;3.50;3.30;;;9.90;1.00;;;;;;6307262;28;20252;-58
2022/03/08 15:56:33;;;;;;;3.57;3.47;;;9.90;1.00;;;;;;6309510;28;20795;-58
2022/03/08 15:59:37;;;;;;;4.23;3.67;;;9.80;1.00;;;;;;6308264;28;20572;-57
2022/03/08 16:02:41;;;;;;;4.10;3.70;;;9.70;1.00;;;;;;6307341;28;20237;-56
2022/03/08 16:05:44;;;;;;;3.80;3.60;;;9.60;1.00;;;;;;6307671;28;20470;-59
2022/03/08 16:08:46;;;;;;;3.93;3.83;;;9.50;1.00;;;;;;6308137;28;20236;-57
2022/03/08 16:11:49;;;;;;;3.70;3.60;;;9.50;1.00;;;;;;6308265;28;20236;-57
2022/03/08 16:14:59;;;;;;;3.63;3.47;;;9.40;1.00;;;;;;6307710;28;20237;-58
2022/03/08 16:18:02;;;;;;;4.50;4.20;;;9.40;1.00;;;;;;6302135;28;20354;-58
2022/03/08 16:21:06;;;;;;;4.77;4.53;;;9.20;1.00;;;;;;6305892;28;20256;-58